Terminal Aerodrome Forecast
Issued by NWS Melbourne, FL

Current Version | Previous Version | Text Only | Print | Product List | Glossary On
Versions: 1 2 3 4 5 6 7 8 9 10 11 12 13 14 15 16 17 18 19 20 21 22
400
FTUS42 KMLB 060539
TAFMCO
TAF
KMCO 060539Z 0606/0706 17008KT P6SM FEW120 SCT160 OVC180
     FM060800 17008KT P6SM FEW003 OVC010
     FM061500 20017G25KT P6SM VCSH SCT020 BKN040
     FM062200 25010KT P6SM BKN050
     FM070300 26006KT P6SM SCT025=

USA.gov is the U.S. government's official web portal to all federal, state and local government web resources and services.